Terminal Aerodrome Forecast
Issued by NWS Buffalo, NY

Home | Current Version | Previous Version | Text Only | Print | Product List | Glossary On
Versions: 1 2 3 4 5 6 7 8 9 10 11 12 13 14 15 16 17 18 19 20 21 22 23 24 25 26 27 28 29 30
877
FTUS41 KBUF 051140
TAFBUF
TAF
KBUF 051140Z 0512/0612 25015G25KT P6SM SCT007 OVC015
     FM051600 26015G25KT P6SM BKN025
     FM052000 25013KT P6SM BKN035
     FM060000 25008KT P6SM BKN040
     FM060600 VRB03KT P6SM SCT040=

USA.gov is the U.S. government's official web portal to all federal, state and local government web resources and services.